Time;durP1;ratioP1;P1;durP2;ratioP2;P2;SDS_P1;SDS_P2;PMS_P1;PMS_P2;Temp;Humidity;BMP_temperature;BMP_pressure;BME280_temperature;BME280_humidity;BME280_pressure;Samples;Min_cycle;Max_cycle;Signal;HPM_P1;HPM_P2
2024/01/01 00:01:45;;;;;;;5.00;3.67;;;15.90;91.30;;;;;;5014975;28;20182;-78
2024/01/01 00:04:13;;;;;;;4.80;3.93;;;16.00;91.30;;;;;;5015670;28;20305;-78
2024/01/01 00:06:42;;;;;;;4.87;4.37;;;16.00;91.30;;;;;;5013214;28;20179;-78
2024/01/01 00:09:11;;;;;;;4.77;3.93;;;16.00;91.30;;;;;;5013007;28;20178;-78
2024/01/01 00:11:37;;;;;;;5.47;4.33;;;16.00;91.30;;;;;;5012394;28;20204;-78
2024/01/01 00:14:16;;;;;;;5.27;4.47;;;15.90;91.20;;;;;;5012351;28;20262;-78
2024/01/01 00:16:46;;;;;;;5.37;4.87;;;15.90;91.20;;;;;;5012910;28;20180;-78
2024/01/01 00:19:12;;;;;;;6.27;4.70;;;15.90;91.30;;;;;;5013697;28;20268;-78
2024/01/01 00:22:02;;;;;;;5.60;4.43;;;15.90;91.30;;;;;;5015904;28;20403;-78
2024/01/01 00:24:29;;;;;;;5.53;4.70;;;15.90;91.30;;;;;;5016536;28;20596;-79
2024/01/01 00:26:55;;;;;;;6.43;5.00;;;15.90;91.40;;;;;;5018089;28;20186;-78
2024/01/01 00:29:24;;;;;;;5.80;4.57;;;15.80;91.40;;;;;;5018268;28;20173;-78
2024/01/01 00:31:50;;;;;;;7.43;5.57;;;15.80;91.40;;;;;;5019188;28;20607;-78
2024/01/01 00:34:24;;;;;;;5.47;4.60;;;15.80;91.40;;;;;;5019169;28;20199;-78
2024/01/01 00:37:00;;;;;;;5.43;4.80;;;15.80;91.40;;;;;;5018390;28;20190;-78
2024/01/01 00:39:41;;;;;;;;;;;;;;;;;;;;;
2024/01/01 00:42:12;;;;;;;7.23;5.50;;;15.80;91.30;;;;;;5036397;28;20423;-78
2024/01/01 00:45:19;;;;;;;;;;;;;;;;;;;;;
2024/01/01 00:48:04;;;;;;;6.70;5.20;;;15.80;91.20;;;;;;5010163;28;20189;-79
2024/01/01 00:50:55;;;;;;;7.23;5.70;;;15.80;91.20;;;;;;5003849;28;20195;-78
2024/01/01 00:53:44;;;;;;;6.50;5.50;;;15.80;91.20;;;;;;5002982;28;20181;-78
2024/01/01 00:56:13;;;;;;;7.70;5.40;;;15.80;91.20;;;;;;4997341;28;20468;-78
2024/01/01 00:59:00;;;;;;;;;;;;;;;;;;;;;
2024/01/01 01:02:01;;;;;;;7.67;5.63;;;15.80;91.30;;;;;;5013934;28;20476;-78
2024/01/01 01:04:27;;;;;;;6.87;5.63;;;15.80;91.30;;;;;;4999646;28;20296;-79
2024/01/01 01:06:55;;;;;;;6.23;5.00;;;15.70;91.30;;;;;;4998567;28;20216;-77
2024/01/01 01:09:21;;;;;;;6.77;5.13;;;15.70;91.40;;;;;;4998176;28;20183;-77
2024/01/01 01:11:47;;;;;;;7.73;5.43;;;15.70;91.40;;;;;;4997687;28;20177;-75
2024/01/01 01:14:13;;;;;;;6.57;5.77;;;15.70;91.40;;;;;;4997079;28;20444;-76
2024/01/01 01:16:49;;;;;;;8.37;6.23;;;15.70;91.40;;;;;;4995072;28;20186;-78
2024/01/01 01:19:18;;;;;;;7.47;5.80;;;15.70;91.50;;;;;;4998784;28;20185;-77
2024/01/01 01:25:57;;;;;;;;;;;;;;;;;;;;;
2024/01/01 01:37:48;;;;;;;7.53;5.40;;;15.80;91.30;;;;;;5082866;23;20234;-1
2024/01/01 01:40:16;;;;;;;6.77;5.23;;;15.80;91.20;;;;;;5080045;28;20447;-1
2024/01/01 01:42:48;;;;;;;6.50;5.50;;;15.80;91.10;;;;;;5079133;28;20152;-1
2024/01/01 01:45:14;;;;;;;5.70;5.07;;;15.80;91.10;;;;;;5062276;28;20213;-1
2024/01/01 01:48:14;;;;;;;6.87;5.60;;;15.80;91.10;;;;;;5080037;28;20175;-1
2024/01/01 01:50:40;;;;;;;6.87;5.27;;;15.80;91.00;;;;;;5062520;28;20173;-1
2024/01/01 01:53:05;;;;;;;7.40;5.03;;;15.80;91.10;;;;;;5079371;28;20232;-1
2024/01/01 01:55:31;;;;;;;6.40;5.00;;;15.80;91.10;;;;;;5080293;28;20182;-1
2024/01/01 01:58:01;;;;;;;6.13;4.77;;;15.80;91.10;;;;;;5062336;28;20274;-1
2024/01/01 02:00:26;;;;;;;6.90;5.40;;;15.80;91.00;;;;;;5061702;28;20179;-1
2024/01/01 02:02:53;;;;;;;6.57;5.37;;;15.80;91.00;;;;;;5079967;28;20227;-2
2024/01/01 02:05:21;;;;;;;7.20;4.93;;;15.80;91.00;;;;;;5062265;28;20174;-1
2024/01/01 02:07:50;;;;;;;6.40;5.00;;;15.80;90.90;;;;;;5079734;28;20440;-1
2024/01/01 02:10:16;;;;;;;5.40;4.40;;;15.70;90.90;;;;;;5079080;28;20281;-1
2024/01/01 02:12:44;;;;;;;6.43;4.73;;;15.80;90.90;;;;;;5079391;28;20269;-1
2024/01/01 02:15:10;;;;;;;5.40;4.37;;;15.80;90.80;;;;;;5061918;28;20183;-1
2024/01/01 02:17:36;;;;;;;6.27;4.43;;;15.80;90.80;;;;;;5079213;28;20175;-1
2024/01/01 02:20:02;;;;;;;5.73;4.73;;;15.80;90.70;;;;;;5079195;28;20209;-1
2024/01/01 02:22:38;;;;;;;6.90;4.57;;;15.80;90.60;;;;;;5061340;28;20457;-2
2024/01/01 02:25:05;;;;;;;7.07;4.30;;;15.80;90.70;;;;;;5060895;28;20616;-2
2024/01/01 02:27:59;;;;;;;5.63;4.33;;;15.80;90.60;;;;;;5078239;28;20261;-3
2024/01/01 02:30:27;;;;;;;6.13;4.30;;;15.80;90.70;;;;;;5061648;28;20194;-3
2024/01/01 02:32:53;;;;;;;4.97;4.00;;;15.80;90.60;;;;;;5073583;28;20187;-3
2024/01/01 02:35:18;;;;;;;4.93;3.93;;;15.80;90.70;;;;;;5040706;28;20168;-2
2024/01/01 02:37:47;;;;;;;5.93;3.87;;;15.80;90.60;;;;;;5058563;28;20205;-2
2024/01/01 02:40:16;;;;;;;6.67;4.20;;;15.80;90.60;;;;;;5058168;28;20281;-2
2024/01/01 02:42:44;;;;;;;5.80;3.83;;;15.70;90.60;;;;;;5040830;28;20569;-2
2024/01/01 02:45:13;;;;;;;5.43;4.10;;;15.70;90.60;;;;;;5041061;28;20226;-2
2024/01/01 02:47:39;;;;;;;5.20;4.30;;;15.70;90.60;;;;;;5058242;28;20180;-2
2024/01/01 02:50:05;;;;;;;5.17;4.17;;;15.70;90.60;;;;;;5058221;28;20164;-2
2024/01/01 02:52:31;;;;;;;4.13;2.90;;;15.70;90.60;;;;;;5040980;28;20168;-2
2024/01/01 02:54:56;;;;;;;4.60;3.37;;;15.80;90.50;;;;;;5039917;28;20175;-2
2024/01/01 02:57:26;;;;;;;5.27;3.30;;;15.80;90.50;;;;;;5058127;28;20171;-2
2024/01/01 02:59:51;;;;;;;5.73;3.40;;;15.80;90.50;;;;;;5040963;28;20190;-2
2024/01/01 03:02:20;;;;;;;4.50;3.10;;;15.80;90.40;;;;;;5057568;28;20187;-2
2024/01/01 03:04:45;;;;;;;5.40;3.53;;;15.80;90.40;;;;;;5057975;28;20209;-2
2024/01/01 03:07:11;;;;;;;4.67;3.10;;;15.80;90.40;;;;;;5039832;28;20639;-2
2024/01/01 03:09:45;;;;;;;3.67;3.07;;;15.80;90.30;;;;;;5058358;28;20188;-2
2024/01/01 03:12:14;;;;;;;4.67;2.97;;;15.70;90.30;;;;;;5041129;28;20178;-2
2024/01/01 03:14:43;;;;;;;3.77;3.03;;;15.70;90.30;;;;;;5040639;28;20172;-2
2024/01/01 03:17:12;;;;;;;4.30;2.93;;;15.70;90.30;;;;;;5040513;28;20173;-2
2024/01/01 03:19:38;;;;;;;4.70;2.93;;;15.70;90.40;;;;;;5057619;28;20245;-3
2024/01/01 03:22:07;;;;;;;4.17;2.93;;;15.70;90.30;;;;;;5040860;28;20187;-2
2024/01/01 03:24:32;;;;;;;3.37;2.73;;;15.70;90.40;;;;;;5057948;28;20476;-2
2024/01/01 03:27:00;;;;;;;3.13;2.37;;;15.60;90.40;;;;;;5040293;28;20175;-2
2024/01/01 03:29:28;;;;;;;3.60;2.40;;;15.60;90.40;;;;;;5041021;28;20167;-2
2024/01/01 03:31:54;;;;;;;3.80;2.50;;;15.60;90.40;;;;;;5058169;28;20191;-2
2024/01/01 03:34:20;;;;;;;4.33;2.73;;;15.60;90.40;;;;;;5040599;28;20176;-2
2024/01/01 03:36:45;;;;;;;3.57;2.80;;;15.60;90.40;;;;;;5040401;28;20175;-2
2024/01/01 03:39:12;;;;;;;3.57;2.60;;;15.60;90.40;;;;;;5057979;28;20183;-1
2024/01/01 03:41:39;;;;;;;4.17;2.67;;;15.60;90.40;;;;;;5057816;28;20183;-2
2024/01/01 03:44:06;;;;;;;3.50;2.50;;;15.60;90.30;;;;;;5057489;28;20539;-1
2024/01/01 03:46:31;;;;;;;3.73;2.50;;;15.60;90.30;;;;;;5040475;28;20552;-2
2024/01/01 03:49:35;;;;;;;3.87;2.60;;;15.60;90.40;;;;;;5057720;28;20155;-2
2024/01/01 03:52:01;;;;;;;3.50;2.33;;;15.60;90.40;;;;;;5040118;28;20463;-2
2024/01/01 03:54:27;;;;;;;3.67;2.23;;;15.60;90.40;;;;;;5038229;28;20180;-2
2024/01/01 03:56:52;;;;;;;5.30;2.30;;;15.60;90.40;;;;;;5057343;28;20461;-2
2024/01/01 03:59:21;;;;;;;3.87;2.30;;;15.60;90.40;;;;;;5039774;28;20191;-2
2024/01/01 04:01:50;;;;;;;2.60;1.87;;;15.60;90.40;;;;;;5057351;28;20561;-2
2024/01/01 04:04:18;;;;;;;2.97;2.10;;;15.60;90.50;;;;;;5040167;28;20208;-1
2024/01/01 04:06:44;;;;;;;2.33;1.80;;;15.50;90.50;;;;;;5057126;28;20242;-2
2024/01/01 04:09:33;;;;;;;2.77;2.00;;;15.50;90.50;;;;;;5039652;28;20476;-2
2024/01/01 04:11:59;;;;;;;3.83;2.20;;;15.50;90.60;;;;;;5057831;28;20546;-2
2024/01/01 04:14:25;;;;;;;3.23;2.30;;;15.40;90.60;;;;;;5040262;28;20175;-2
2024/01/01 04:16:51;;;;;;;2.97;1.87;;;15.30;90.80;;;;;;5057414;28;20243;-2
2024/01/01 04:19:21;;;;;;;2.70;1.93;;;15.30;90.90;;;;;;5040192;28;20276;-2
2024/01/01 04:21:47;;;;;;;2.80;2.20;;;15.20;91.00;;;;;;5057454;28;20187;-2
2024/01/01 04:24:13;;;;;;;3.00;1.97;;;15.20;91.20;;;;;;5057352;28;20623;-2
2024/01/01 04:26:39;;;;;;;2.60;1.93;;;15.10;91.30;;;;;;5057501;28;20163;-2
2024/01/01 04:29:16;;;;;;;4.00;2.03;;;15.10;91.40;;;;;;5057872;28;20219;-2
2024/01/01 04:31:41;;;;;;;3.50;2.10;;;15.30;91.00;;;;;;5057378;28;20476;-2
2024/01/01 04:34:07;;;;;;;3.17;2.10;;;15.40;90.80;;;;;;5057338;28;20578;-2
2024/01/01 04:36:32;;;;;;;2.50;2.00;;;15.50;90.50;;;;;;5057603;28;20178;-2
2024/01/01 04:39:09;;;;;;;2.57;1.83;;;15.70;90.10;;;;;;5057174;28;20169;-2
2024/01/01 04:41:34;;;;;;;3.10;2.00;;;15.90;89.10;;;;;;5039878;28;20209;-2
2024/01/01 04:44:00;;;;;;;2.33;2.00;;;16.20;87.80;;;;;;5057181;28;20190;-2
2024/01/01 04:46:26;;;;;;;3.53;2.00;;;16.30;86.50;;;;;;5056757;28;20202;-2
2024/01/01 04:48:52;;;;;;;4.93;2.27;;;16.60;85.10;;;;;;5056729;28;20465;-2
2024/01/01 04:51:20;;;;;;;3.20;1.97;;;16.80;83.70;;;;;;5039649;28;20178;-2
2024/01/01 04:53:49;;;;;;;3.00;1.90;;;16.90;82.10;;;;;;5056712;28;20420;-2
2024/01/01 04:56:16;;;;;;;4.80;1.90;;;17.10;81.00;;;;;;5057142;28;20582;-2
2024/01/01 04:58:46;;;;;;;3.20;1.80;;;17.30;79.60;;;;;;5056829;28;20168;-2
2024/01/01 05:01:32;;;;;;;2.67;1.57;;;17.50;78.40;;;;;;5039466;28;20179;-2
2024/01/01 05:03:57;;;;;;;3.60;1.90;;;17.70;77.10;;;;;;5039521;28;20211;-2
2024/01/01 05:06:23;;;;;;;2.80;1.80;;;17.70;76.50;;;;;;5042412;28;20168;-2
2024/01/01 05:08:51;;;;;;;2.40;1.50;;;17.80;75.90;;;;;;5042926;28;20175;-2
2024/01/01 05:11:20;;;;;;;2.50;1.63;;;17.80;75.40;;;;;;5060319;28;20201;-3
2024/01/01 05:13:48;;;;;;;3.60;1.70;;;17.90;74.80;;;;;;5043158;28;20169;-2
2024/01/01 05:16:14;;;;;;;2.27;1.50;;;18.00;74.40;;;;;;5060798;28;20242;-2
2024/01/01 05:18:40;;;;;;;2.17;1.53;;;18.00;74.50;;;;;;5060530;28;20225;-2
2024/01/01 05:21:06;;;;;;;2.30;1.60;;;18.00;73.70;;;;;;5060356;28;20177;-2
2024/01/01 05:23:31;;;;;;;2.90;1.60;;;18.00;73.60;;;;;;5043424;28;20269;-3
2024/01/01 05:26:06;;;;;;;3.27;1.80;;;18.00;73.60;;;;;;5043415;28;20537;-2
2024/01/01 05:28:32;;;;;;;2.37;1.50;;;17.90;73.90;;;;;;5043022;28;20211;-2
2024/01/01 05:30:57;;;;;;;2.33;1.77;;;17.90;73.90;;;;;;5043354;28;20200;-2
2024/01/01 05:33:26;;;;;;;2.53;1.60;;;17.90;74.00;;;;;;5060395;28;20172;-2
2024/01/01 05:35:52;;;;;;;2.50;1.63;;;17.80;74.10;;;;;;5060758;28;20487;-3
2024/01/01 05:38:25;;;;;;;2.60;1.90;;;17.80;74.20;;;;;;5042636;28;20188;-2
2024/01/01 05:40:50;;;;;;;3.10;1.37;;;17.80;74.70;;;;;;5025607;28;20203;-2
2024/01/01 05:43:16;;;;;;;2.37;1.60;;;17.90;74.40;;;;;;5057673;28;20245;-2
2024/01/01 05:45:42;;;;;;;2.10;1.53;;;17.80;74.20;;;;;;5041060;28;20245;-2
2024/01/01 05:48:09;;;;;;;3.23;1.60;;;17.80;74.00;;;;;;5059981;28;20173;-2
2024/01/01 05:50:34;;;;;;;2.93;1.40;;;17.80;74.10;;;;;;5059913;28;20452;-2
2024/01/01 05:53:00;;;;;;;4.37;1.90;;;17.80;74.10;;;;;;5042047;28;20542;-2
2024/01/01 05:55:26;;;;;;;3.57;1.63;;;17.80;74.20;;;;;;5060086;28;20667;-2
2024/01/01 05:57:57;;;;;;;1.93;1.50;;;17.70;74.30;;;;;;5042033;28;20180;-2
2024/01/01 06:00:26;;;;;;;2.93;1.50;;;17.70;74.40;;;;;;5059709;28;20188;-3
2024/01/01 06:02:51;;;;;;;4.00;1.80;;;17.60;74.80;;;;;;5042442;28;20198;-2
2024/01/01 06:05:17;;;;;;;2.10;1.40;;;17.50;75.00;;;;;;5059578;28;20558;-2
2024/01/01 06:11:05;;;;;;;2.80;1.33;;;17.50;75.70;;;;;;5059586;28;20602;-2
2024/01/01 06:13:31;;;;;;;4.50;1.60;;;17.50;75.90;;;;;;5059275;28;20176;-3
2024/01/01 06:15:58;;;;;;;3.13;1.60;;;17.40;75.90;;;;;;5041992;28;20214;-2
2024/01/01 06:18:27;;;;;;;3.67;1.60;;;17.40;76.00;;;;;;5058462;28;20206;-2
2024/01/01 06:21:11;;;;;;;3.23;1.40;;;17.30;76.20;;;;;;5059211;28;20561;-2
2024/01/01 06:23:38;;;;;;;2.23;1.40;;;17.30;76.20;;;;;;5041066;28;20203;-3
2024/01/01 06:26:04;;;;;;;2.70;1.47;;;17.30;76.40;;;;;;5042102;28;20294;-3
2024/01/01 06:28:32;;;;;;;2.57;1.23;;;17.30;76.20;;;;;;5059340;28;20176;-2
2024/01/01 06:31:18;;;;;;;2.77;1.37;;;17.30;76.40;;;;;;5059172;28;20643;-2
2024/01/01 06:33:44;;;;;;;2.70;1.30;;;17.20;76.30;;;;;;5042604;28;20603;-2
2024/01/01 06:36:10;;;;;;;2.60;1.47;;;17.30;76.50;;;;;;5059041;28;20157;-2
2024/01/01 06:38:36;;;;;;;2.67;1.40;;;17.20;76.60;;;;;;5041162;28;20482;-2
2024/01/01 06:41:03;;;;;;;2.33;1.27;;;17.20;76.70;;;;;;5058495;28;20191;-2
2024/01/01 06:43:33;;;;;;;2.53;1.50;;;17.20;76.70;;;;;;5058817;28;20818;-2
2024/01/01 06:45:59;;;;;;;2.30;1.50;;;17.20;76.40;;;;;;5097125;22;20310;-2
2024/01/01 06:48:25;;;;;;;2.20;1.43;;;17.20;76.50;;;;;;5037254;28;20580;-2
2024/01/01 06:50:51;;;;;;;2.80;1.60;;;17.20;76.60;;;;;;5037331;28;20184;-3
2024/01/01 06:53:17;;;;;;;2.90;1.57;;;17.20;76.40;;;;;;5055103;28;20172;-2
2024/01/01 06:55:42;;;;;;;2.00;1.30;;;17.20;76.50;;;;;;5037800;28;20176;-3
2024/01/01 06:58:11;;;;;;;2.60;1.40;;;17.20;76.50;;;;;;5038722;28;20187;-2
2024/01/01 07:00:36;;;;;;;2.70;1.50;;;17.20;76.50;;;;;;5056204;28;20481;-2
2024/01/01 07:03:02;;;;;;;3.80;1.70;;;17.20;76.40;;;;;;5055913;28;20541;-2
2024/01/01 07:05:29;;;;;;;3.60;1.40;;;17.20;76.60;;;;;;5055866;28;20223;-2
2024/01/01 07:07:55;;;;;;;3.03;1.40;;;17.20;76.70;;;;;;5039307;28;20181;-2
2024/01/01 07:10:21;;;;;;;2.47;1.47;;;17.20;76.70;;;;;;5056199;28;20185;-2
2024/01/01 07:12:49;;;;;;;2.67;1.40;;;17.10;76.80;;;;;;5055761;28;20259;-2
2024/01/01 07:15:18;;;;;;;3.27;1.30;;;17.20;76.90;;;;;;5053441;28;20420;-2
2024/01/01 07:17:44;;;;;;;2.10;1.20;;;17.20;76.70;;;;;;5036114;28;20272;-2
2024/01/01 07:20:10;;;;;;;1.90;1.30;;;17.20;76.80;;;;;;5035671;28;20286;-2
2024/01/01 07:22:36;;;;;;;2.07;1.23;;;17.30;76.60;;;;;;5051815;28;20394;-2
2024/01/01 07:25:03;;;;;;;3.00;1.37;;;17.20;76.40;;;;;;5052868;28;20539;-2
2024/01/01 07:27:28;;;;;;;3.37;1.30;;;17.30;76.50;;;;;;5034370;28;20510;-2
2024/01/01 07:29:56;;;;;;;3.00;1.50;;;17.20;76.50;;;;;;5054174;28;20568;-2
2024/01/01 07:32:26;;;;;;;2.60;1.40;;;17.20;76.70;;;;;;5053536;28;20168;-2
2024/01/01 07:34:54;;;;;;;2.30;1.23;;;17.20;76.70;;;;;;5054868;28;20164;-3
2024/01/01 07:37:20;;;;;;;1.77;1.23;;;17.10;76.80;;;;;;5054287;28;20183;-2
2024/01/01 07:39:45;;;;;;;2.83;1.50;;;17.20;76.80;;;;;;5037863;28;20183;-2
2024/01/01 07:42:11;;;;;;;2.27;1.20;;;17.10;76.70;;;;;;5055419;28;20238;-2
2024/01/01 07:44:40;;;;;;;2.90;1.40;;;17.20;76.60;;;;;;5056854;28;20204;-2
2024/01/01 07:47:06;;;;;;;2.57;1.30;;;17.20;76.80;;;;;;5040223;28;20453;-2
2024/01/01 07:49:31;;;;;;;2.53;1.30;;;17.10;76.80;;;;;;5057821;28;20583;-2
2024/01/01 07:52:01;;;;;;;4.03;1.53;;;17.10;76.90;;;;;;5058079;28;20164;-2
2024/01/01 07:54:30;;;;;;;2.37;1.57;;;17.10;76.70;;;;;;5057857;28;20234;-2
2024/01/01 07:57:06;;;;;;;2.70;1.33;;;17.20;76.70;;;;;;5057412;28;20247;-2
2024/01/01 07:59:32;;;;;;;2.13;1.30;;;17.20;76.60;;;;;;5040451;28;20208;-2
2024/01/01 08:01:57;;;;;;;2.47;1.40;;;17.20;76.50;;;;;;5056785;28;20180;-2
2024/01/01 08:04:23;;;;;;;2.17;1.23;;;17.10;76.50;;;;;;5057300;28;20253;-2
2024/01/01 08:07:07;;;;;;;2.77;1.40;;;17.10;76.50;;;;;;5057262;28;20276;-2
2024/01/01 08:09:33;;;;;;;3.07;1.30;;;17.20;76.70;;;;;;5056967;28;20168;-2
2024/01/01 08:11:58;;;;;;;1.87;1.30;;;17.10;76.50;;;;;;5040260;28;20180;-2
2024/01/01 08:14:27;;;;;;;2.30;1.30;;;17.20;76.50;;;;;;5057018;28;20226;-2
2024/01/01 08:17:28;;;;;;;2.73;1.33;;;17.20;76.10;;;;;;5039953;28;20605;-2
2024/01/01 08:19:54;;;;;;;1.70;1.07;;;17.20;76.00;;;;;;5056833;28;20178;-2
2024/01/01 08:22:20;;;;;;;1.53;1.10;;;17.20;76.10;;;;;;5056665;28;20187;-2
2024/01/01 08:24:45;;;;;;;3.03;1.30;;;17.20;76.20;;;;;;5039359;28;20491;-2
2024/01/01 08:27:11;;;;;;;2.70;1.40;;;17.20;76.40;;;;;;5056612;28;20180;-2
2024/01/01 08:29:37;;;;;;;2.70;1.30;;;17.20;76.30;;;;;;5039673;28;20204;-2
2024/01/01 08:32:06;;;;;;;1.93;1.20;;;17.20;76.20;;;;;;5039871;28;20212;-2
2024/01/01 08:34:32;;;;;;;1.87;1.27;;;17.20;76.10;;;;;;5057110;28;20438;-2
2024/01/01 08:37:01;;;;;;;3.47;1.47;;;17.20;76.10;;;;;;5056871;28;20562;-3
2024/01/01 08:39:35;;;;;;;1.87;1.20;;;17.20;76.00;;;;;;5056817;28;20164;-3
2024/01/01 08:42:01;;;;;;;1.83;1.30;;;17.20;75.80;;;;;;5060902;28;20793;-2
2024/01/01 08:44:26;;;;;;;1.50;0.97;;;17.20;75.90;;;;;;5043195;28;20211;-3
2024/01/01 08:46:52;;;;;;;2.50;1.30;;;17.20;75.90;;;;;;5080486;22;20233;-78
2024/01/01 08:49:18;;;;;;;1.67;1.20;;;17.20;75.90;;;;;;5062504;28;20584;-78
2024/01/01 08:51:46;;;;;;;2.30;1.03;;;17.20;76.00;;;;;;5062338;28;20501;-77
2024/01/01 08:54:25;;;;;;;1.97;1.10;;;17.20;75.90;;;;;;5062347;28;20171;-78
2024/01/01 08:56:50;;;;;;;2.10;1.30;;;17.30;76.00;;;;;;5062073;28;20190;-77
2024/01/01 08:59:20;;;;;;;1.33;1.10;;;17.30;76.00;;;;;;5062332;28;20172;-78
2024/01/01 09:01:58;;;;;;;1.60;1.00;;;17.20;75.70;;;;;;5061974;28;20171;-78
2024/01/01 09:04:31;;;;;;;3.23;1.10;;;17.30;75.80;;;;;;5061612;28;20302;-77
2024/01/01 09:07:01;;;;;;;1.20;1.00;;;17.30;75.90;;;;;;5062247;28;20179;-78
2024/01/01 09:09:38;;;;;;;1.40;0.90;;;17.20;75.90;;;;;;5062053;28;20176;-78
2024/01/01 09:12:04;;;;;;;1.67;1.07;;;17.30;75.70;;;;;;5062213;28;20174;-78
2024/01/01 09:14:34;;;;;;;1.83;0.90;;;17.30;76.20;;;;;;5062628;28;20179;-78
2024/01/01 09:17:00;;;;;;;1.60;1.10;;;17.30;75.50;;;;;;5061968;28;20240;-78
2024/01/01 09:19:25;;;;;;;3.80;1.20;;;17.20;75.60;;;;;;5062292;28;20180;-78
2024/01/01 09:25:28;;;;;;;1.73;0.90;;;17.30;75.60;;;;;;5080506;28;20257;-81
2024/01/01 09:27:57;;;;;;;1.47;1.00;;;17.30;75.70;;;;;;5061622;28;20210;-79
2024/01/01 09:30:23;;;;;;;1.80;1.10;;;17.30;75.70;;;;;;5060709;28;20172;-79
2024/01/01 09:33:06;;;;;;;2.13;1.20;;;17.30;75.80;;;;;;5062027;28;20171;-79
2024/01/01 09:35:39;;;;;;;1.93;1.17;;;17.30;75.90;;;;;;5051831;28;20575;-78
2024/01/01 09:38:05;;;;;;;1.87;1.00;;;17.30;75.70;;;;;;5058328;28;20174;-79
2024/01/01 09:40:33;;;;;;;1.53;1.00;;;17.30;75.50;;;;;;5058511;28;20262;-79
2024/01/01 09:43:02;;;;;;;1.70;1.00;;;17.30;75.30;;;;;;5057878;28;20266;-78
2024/01/01 09:45:30;;;;;;;2.10;1.10;;;17.40;75.40;;;;;;5057267;28;20199;-77
2024/01/01 09:48:43;;;;;;;2.27;1.00;;;17.30;75.50;;;;;;5060384;28;20175;-81
2024/01/01 09:57:47;;;;;;;1.67;1.00;;;17.30;75.80;;;;;;4996774;28;20177;-81
2024/01/01 10:00:35;;;;;;;1.97;0.90;;;17.30;76.00;;;;;;5069864;28;20246;-81
2024/01/01 10:03:10;;;;;;;1.40;1.00;;;17.30;75.90;;;;;;5058714;28;20417;-77
2024/01/01 10:05:41;;;;;;;1.50;0.90;;;17.30;75.60;;;;;;5058447;28;20239;-78
2024/01/01 10:08:34;;;;;;;0.97;0.83;;;17.30;76.00;;;;;;5058765;28;20199;-82
2024/01/01 10:11:19;;;;;;;1.97;1.20;;;17.20;76.40;;;;;;5019957;28;20184;-76
2024/01/01 10:13:49;;;;;;;1.80;1.00;;;17.20;77.20;;;;;;5058022;28;20518;-76
2024/01/01 10:16:28;;;;;;;1.80;1.10;;;17.20;77.80;;;;;;5038285;28;20231;-76
2024/01/01 10:18:58;;;;;;;1.80;1.13;;;17.20;78.20;;;;;;5052699;28;20176;-76
2024/01/01 10:21:53;;;;;;;2.47;1.00;;;17.20;78.70;;;;;;5052788;28;20550;-76
2024/01/01 10:24:21;;;;;;;1.50;1.10;;;17.20;79.20;;;;;;5041601;28;20212;-76
2024/01/01 10:26:49;;;;;;;2.87;0.97;;;17.10;79.50;;;;;;5053851;28;20168;-76
2024/01/01 10:29:20;;;;;;;2.03;1.40;;;17.10;79.90;;;;;;5053880;28;20195;-76
2024/01/01 10:31:48;;;;;;;5.13;1.30;;;17.10;80.30;;;;;;5051917;28;20172;-76
2024/01/01 10:34:20;;;;;;;5.03;1.10;;;17.20;80.40;;;;;;5052233;28;20431;-76
2024/01/01 10:36:46;;;;;;;1.63;0.93;;;17.10;80.50;;;;;;5050653;28;20179;-76
2024/01/01 10:39:17;;;;;;;2.10;1.17;;;17.20;80.70;;;;;;5050362;28;20172;-76
2024/01/01 10:41:44;;;;;;;1.90;1.00;;;17.20;81.10;;;;;;5051396;28;20172;-76
2024/01/01 10:44:13;;;;;;;2.50;1.20;;;17.10;81.20;;;;;;5051257;28;20224;-76
2024/01/01 10:46:39;;;;;;;3.17;1.30;;;17.10;81.40;;;;;;5050958;28;20203;-76
2024/01/01 10:49:15;;;;;;;2.63;1.40;;;17.10;81.60;;;;;;5050135;28;20244;-76
2024/01/01 10:52:26;;;;;;;3.80;1.10;;;17.10;82.00;;;;;;5054039;28;20511;-76
2024/01/01 10:55:23;;;;;;;2.47;1.20;;;17.10;82.10;;;;;;5046985;28;20206;-76
2024/01/01 10:58:17;;;;;;;1.87;0.93;;;17.10;82.40;;;;;;5060584;28;20171;-76
2024/01/01 11:01:09;;;;;;;3.97;1.10;;;17.10;82.60;;;;;;5055650;28;20210;-76
2024/01/01 11:03:36;;;;;;;1.83;1.10;;;17.10;82.70;;;;;;5054209;28;20247;-76
2024/01/01 12:08:14;;;;;;;3.90;1.43;;;17.30;84.60;;;;;;4909579;22;20217;-2
2024/01/01 12:10:40;;;;;;;3.27;1.50;;;17.30;84.70;;;;;;5036162;28;20205;-2
2024/01/01 12:13:06;;;;;;;3.93;1.40;;;17.30;85.00;;;;;;5036681;28;20192;-3
2024/01/01 12:15:32;;;;;;;3.87;1.33;;;17.30;85.30;;;;;;5038301;28;20522;-2
2024/01/01 12:18:01;;;;;;;3.10;1.27;;;17.30;85.30;;;;;;5023303;28;20224;-2
2024/01/01 12:20:27;;;;;;;5.20;1.50;;;17.30;85.60;;;;;;5023546;28;20210;-2
2024/01/01 12:22:54;;;;;;;5.30;1.43;;;17.30;85.70;;;;;;5040614;28;20251;-2
2024/01/01 12:25:33;;;;;;;3.47;1.23;;;17.30;85.50;;;;;;5023724;28;20200;-2
2024/01/01 12:28:03;;;;;;;4.00;1.47;;;17.30;85.30;;;;;;5041285;28;20157;-2
2024/01/01 12:30:38;;;;;;;5.57;1.53;;;17.30;85.70;;;;;;5023879;28;20169;-2
2024/01/01 12:33:16;;;;;;;4.73;1.40;;;17.30;85.70;;;;;;5023653;28;20588;-2
2024/01/01 12:35:45;;;;;;;2.83;1.33;;;17.40;85.30;;;;;;5040413;28;20165;-2
2024/01/01 12:38:13;;;;;;;3.93;1.60;;;17.30;85.20;;;;;;5023090;28;20180;-2
2024/01/01 12:40:40;;;;;;;3.43;1.30;;;17.30;85.30;;;;;;5023509;28;20177;-2
2024/01/01 12:43:06;;;;;;;5.23;1.60;;;17.30;85.30;;;;;;5022064;28;20213;-2
2024/01/01 12:45:32;;;;;;;5.90;2.00;;;17.40;85.10;;;;;;5022465;28;20536;-2
2024/01/01 12:47:58;;;;;;;4.57;2.13;;;17.30;85.10;;;;;;5023445;28;20173;-2
2024/01/01 12:50:23;;;;;;;4.67;2.27;;;17.30;85.50;;;;;;5022666;28;20500;-2
2024/01/01 12:52:53;;;;;;;5.90;2.83;;;17.30;85.40;;;;;;5022742;28;20558;-3
2024/01/01 12:55:22;;;;;;;6.70;2.70;;;17.30;85.40;;;;;;5020039;28;20180;-3
2024/01/01 12:57:51;;;;;;;6.30;2.97;;;17.30;85.80;;;;;;5020200;28;20248;-2
2024/01/01 13:00:17;;;;;;;8.40;2.97;;;17.30;85.70;;;;;;5003039;28;20177;-2
2024/01/01 13:02:49;;;;;;;8.77;3.20;;;17.30;85.70;;;;;;5019702;28;20162;-2
2024/01/01 13:05:18;;;;;;;13.43;3.20;;;17.30;85.50;;;;;;5019611;28;20277;-2
2024/01/01 13:07:43;;;;;;;9.93;3.37;;;17.30;85.30;;;;;;5020092;28;20582;-2
2024/01/01 13:10:09;;;;;;;10.60;3.00;;;17.30;85.50;;;;;;5019938;28;20185;-2
2024/01/01 13:12:55;;;;;;;11.27;3.53;;;17.30;85.20;;;;;;5019877;28;20161;-2
2024/01/01 13:15:21;;;;;;;10.67;2.87;;;17.30;85.20;;;;;;5012294;28;20714;-2
2024/01/01 13:17:47;;;;;;;12.50;2.83;;;17.30;85.00;;;;;;5039940;28;20173;-3
2024/01/01 13:20:16;;;;;;;12.40;3.17;;;17.30;84.80;;;;;;5039778;28;20180;-2
2024/01/01 13:22:46;;;;;;;8.13;2.83;;;17.30;84.60;;;;;;5039465;28;20169;-2
2024/01/01 13:25:11;;;;;;;8.40;2.83;;;17.40;84.60;;;;;;5039638;28;20216;-2
2024/01/01 13:27:37;;;;;;;9.67;2.60;;;17.30;84.40;;;;;;5039825;28;20185;-2
2024/01/01 13:30:03;;;;;;;8.10;2.50;;;17.30;84.50;;;;;;5039562;28;20160;-2
2024/01/01 13:32:38;;;;;;;7.70;2.73;;;17.20;84.70;;;;;;5038046;28;20181;-2
2024/01/01 13:35:04;;;;;;;5.07;2.60;;;17.20;84.90;;;;;;5022592;28;20184;-2
2024/01/01 13:37:30;;;;;;;7.53;2.70;;;17.20;85.00;;;;;;5039304;28;20197;-2
2024/01/01 13:39:56;;;;;;;5.30;2.43;;;17.20;85.50;;;;;;5039705;28;20203;-2
2024/01/01 13:42:24;;;;;;;5.63;2.57;;;17.10;85.60;;;;;;5039136;28;20149;-2
2024/01/01 13:44:53;;;;;;;5.67;2.30;;;17.10;86.00;;;;;;5022079;28;20241;-2
2024/01/01 13:47:19;;;;;;;4.90;2.13;;;17.10;85.70;;;;;;5039065;28;20149;-2
2024/01/01 13:49:47;;;;;;;7.07;2.40;;;17.10;86.10;;;;;;5039617;28;20158;-2
2024/01/01 13:52:13;;;;;;;6.87;2.37;;;17.10;86.20;;;;;;5055823;28;20161;-2
2024/01/01 13:54:39;;;;;;;6.20;2.30;;;17.10;86.00;;;;;;5039088;28;20267;-2
2024/01/01 13:57:04;;;;;;;5.00;1.80;;;17.20;86.00;;;;;;5039027;28;20240;-2
2024/01/01 13:59:33;;;;;;;5.00;2.27;;;17.10;86.40;;;;;;5039571;28;20167;-2
2024/01/01 14:02:00;;;;;;;4.73;2.23;;;17.00;86.80;;;;;;5039554;28;20188;-2
2024/01/01 14:04:28;;;;;;;7.13;2.50;;;17.00;87.30;;;;;;5038547;28;20297;-2
2024/01/01 14:06:54;;;;;;;3.93;1.90;;;17.10;86.80;;;;;;5036952;28;20272;-2
2024/01/01 14:09:20;;;;;;;3.77;2.20;;;17.10;86.80;;;;;;5038186;28;20350;-2
2024/01/01 14:11:48;;;;;;;4.57;1.93;;;17.00;87.20;;;;;;5038299;28;20179;-2
2024/01/01 14:14:26;;;;;;;4.33;1.83;;;16.90;87.70;;;;;;5021145;28;20287;-3
2024/01/01 14:16:55;;;;;;;4.10;1.90;;;16.80;87.90;;;;;;5038930;28;20426;-2
2024/01/01 14:19:21;;;;;;;2.90;1.70;;;16.80;88.30;;;;;;5038642;28;20168;-2
2024/01/01 14:21:47;;;;;;;4.23;2.20;;;16.70;88.50;;;;;;5022110;28;20165;-2
2024/01/01 14:24:15;;;;;;;5.63;2.13;;;16.70;88.90;;;;;;5038819;28;20475;-3
2024/01/01 14:26:42;;;;;;;4.27;1.67;;;16.60;89.10;;;;;;5038362;28;20184;-2
2024/01/01 14:29:10;;;;;;;5.07;1.90;;;16.60;89.40;;;;;;5038200;28;20173;-2
2024/01/01 14:31:36;;;;;;;2.80;1.60;;;16.60;89.80;;;;;;5038480;28;20546;-2
2024/01/01 14:34:02;;;;;;;3.83;1.80;;;16.70;89.70;;;;;;5038397;28;20214;-2
2024/01/01 14:36:36;;;;;;;5.37;2.10;;;16.80;89.40;;;;;;5037886;28;20538;-2
2024/01/01 14:39:07;;;;;;;2.93;1.57;;;17.00;88.40;;;;;;5037721;28;20161;-2
2024/01/01 14:41:34;;;;;;;4.30;1.60;;;17.00;87.60;;;;;;5038846;28;20185;-2